Time;durP1;ratioP1;P1;durP2;ratioP2;P2;SDS_P1;SDS_P2;PMS_P1;PMS_P2;Temp;Humidity;BMP_temperature;BMP_pressure;BME280_temperature;BME280_humidity;BME280_pressure;Samples;Min_cycle;Max_cycle;Signal;HPM_P1;HPM_P2
2022/01/13 00:02:22;;;;;;;8.32;4.97;;;;;;;19.42;33.84;104090.97;7316815;19;131272;-60
2022/01/13 00:04:49;;;;;;;6.72;4.82;;;;;;;19.40;33.64;104093.91;7315940;19;131831;-61
2022/01/13 00:07:16;;;;;;;7.25;4.43;;;;;;;19.38;33.75;104091.31;7318338;19;131005;-61
2022/01/13 00:09:43;;;;;;;7.25;4.63;;;;;;;19.38;33.74;104096.88;7315064;19;130646;-61
2022/01/13 00:12:12;;;;;;;7.93;5.00;;;;;;;19.37;33.63;104100.69;7319628;19;128813;-60
2022/01/13 00:14:53;;;;;;;7.60;4.43;;;;;;;19.37;34.08;104102.59;7313002;19;131769;-60
2022/01/13 00:19:56;;;;;;;7.05;4.35;;;;;;;19.35;33.99;104102.75;7313601;19;128899;-61
2022/01/13 00:22:46;;;;;;;7.15;4.95;;;;;;;19.34;33.77;104114.91;7316608;19;128985;-60
2022/01/13 00:25:15;;;;;;;10.18;5.28;;;;;;;19.32;33.59;104108.66;7318807;19;131986;-60
2022/01/13 00:27:47;;;;;;;10.45;4.15;;;;;;;19.31;33.80;104109.72;7313442;19;131110;-60
2022/01/13 00:30:17;;;;;;;7.22;4.80;;;;;;;19.31;34.08;104109.72;7317963;19;128981;-61
2022/01/13 00:32:45;;;;;;;8.45;4.65;;;;;;;19.31;33.75;104117.16;7314809;19;129150;-60
2022/01/13 00:35:12;;;;;;;7.75;4.38;;;;;;;19.29;33.80;104114.56;7314843;19;131852;-61
2022/01/13 00:37:40;;;;;;;7.53;4.60;;;;;;;19.28;33.76;104121.16;7314839;19;131311;-60
2022/01/13 00:40:08;;;;;;;10.48;4.70;;;;;;;19.27;33.85;104110.22;7313959;19;129227;-60
2022/01/13 00:42:35;;;;;;;7.30;4.53;;;;;;;19.27;34.10;104111.09;7318240;19;130644;-61
2022/01/13 00:45:04;;;;;;;7.40;4.97;;;;;;;19.26;33.76;104116.84;7313459;19;131212;-60
2022/01/13 00:47:31;;;;;;;7.00;4.70;;;;;;;19.24;33.62;104105.88;7311383;19;131752;-60
2022/01/13 00:49:57;;;;;;;5.90;4.82;;;;;;;19.26;33.64;104103.81;7311012;19;132258;-61
2022/01/13 00:52:25;;;;;;;7.07;4.53;;;;;;;19.26;34.05;104103.81;7317433;19;130892;-61
2022/01/13 00:54:52;;;;;;;9.65;4.60;;;;;;;19.27;33.61;104102.78;7313589;19;131302;-61
2022/01/13 00:57:19;;;;;;;8.93;5.00;;;;;;;19.28;33.74;104098.94;7315791;19;131999;-61
2022/01/13 00:59:45;;;;;;;7.85;4.93;;;;;;;19.29;33.71;104103.47;7313984;19;129401;-60
2022/01/13 01:02:13;;;;;;;14.45;5.10;;;;;;;19.28;34.04;104098.06;7312554;19;129581;-60
2022/01/13 01:04:40;;;;;;;9.63;5.07;;;;;;;19.27;33.53;104096.34;7312467;19;132028;-60
2022/01/13 01:07:07;;;;;;;11.50;5.50;;;;;;;19.23;33.41;104093.03;7314360;19;132559;-61
2022/01/13 01:09:49;;;;;;;8.82;6.00;;;;;;;19.21;33.77;104093.22;7315957;19;128797;-60
2022/01/13 01:12:18;;;;;;;10.30;5.22;;;;;;;19.21;33.66;104089.56;7311544;19;131774;-61
2022/01/13 01:14:49;;;;;;;10.13;5.05;;;;;;;19.19;33.49;104083.31;7315464;19;131182;-60
2022/01/13 01:17:16;;;;;;;9.90;6.03;;;;;;;19.18;33.52;104089.91;7312769;19;131014;-60
2022/01/13 01:19:47;;;;;;;12.95;5.47;;;;;;;19.18;33.46;104087.13;7314809;19;128967;-60
2022/01/13 01:25:30;;;;;;;16.98;5.43;;;;;;;19.15;33.76;104085.53;7314534;19;131117;-60
2022/01/13 01:27:52;;;;;;;8.75;5.07;;;;;;;19.12;33.61;104091.47;7316087;19;133217;-60
2022/01/13 01:30:40;;;;;;;10.43;5.13;;;;;;;19.12;33.42;104102.56;7310080;19;129408;-60
2022/01/13 01:33:10;;;;;;;8.20;5.03;;;;;;;19.12;33.61;104104.44;7313855;19;129348;-61
2022/01/13 01:35:38;;;;;;;9.07;5.43;;;;;;;19.08;33.42;104102.00;7312630;19;132477;-60
2022/01/13 01:38:04;;;;;;;9.25;5.15;;;;;;;19.07;33.72;104091.97;7312101;19;132188;-61
2022/01/13 01:40:31;;;;;;;8.20;5.30;;;;;;;19.06;33.62;104081.91;7315256;19;130193;-61
2022/01/13 01:42:58;;;;;;;12.95;5.13;;;;;;;19.05;33.48;104085.72;7311419;19;132590;-60
2022/01/13 01:45:32;;;;;;;7.60;4.53;;;;;;;19.04;33.48;104078.44;7315030;19;131188;-60
2022/01/13 01:48:03;;;;;;;6.95;4.70;;;;;;;19.05;33.37;104088.50;7309495;19;131124;-60
2022/01/13 01:50:35;;;;;;;8.32;5.07;;;;;;;19.03;33.65;104093.34;7314485;19;128984;-60
2022/01/13 01:53:03;;;;;;;11.20;5.60;;;;;;;19.03;33.79;104092.47;7312225;19;129056;-60
2022/01/13 01:55:30;;;;;;;8.57;5.03;;;;;;;19.01;33.46;104095.44;7313177;19;131772;-60
2022/01/13 01:57:56;;;;;;;11.00;5.72;;;;;;;18.99;33.58;104091.97;7314041;19;131151;-61
2022/01/13 02:00:26;;;;;;;6.75;5.07;;;;;;;18.99;33.90;104096.66;7312458;19;129353;-60
2022/01/13 02:02:55;;;;;;;8.38;5.00;;;;;;;18.98;33.48;104094.91;7315730;19;128975;-61
2022/01/13 02:05:23;;;;;;;9.00;4.32;;;;;;;18.96;33.68;104097.84;7311049;19;132212;-60
2022/01/13 02:07:50;;;;;;;6.90;4.50;;;;;;;18.96;33.94;104092.28;7314715;19;131898;-60
2022/01/13 02:10:17;;;;;;;7.35;4.50;;;;;;;18.94;33.49;104088.84;7310887;19;128964;-61
2022/01/13 02:12:48;;;;;;;8.57;5.53;;;;;;;18.95;33.70;104095.25;7312330;19;132171;-60
2022/01/13 02:15:47;;;;;;;10.43;4.72;;;;;;;18.95;33.83;104093.34;7312053;19;131609;-60
2022/01/13 02:18:03;;;;;;;;;;;;;;;18.90;33.65;104093.84;7312653;19;131115;-61
2022/01/13 02:20:48;;;;;;;13.20;5.03;;;;;;;18.94;33.69;104091.63;7314733;19;128678;-60
2022/01/13 02:23:29;;;;;;;10.95;4.75;;;;;;;18.93;33.46;104098.19;7309334;19;131103;-60
2022/01/13 02:25:56;;;;;;;6.88;4.97;;;;;;;18.89;33.75;104103.19;7315039;19;131279;-60
2022/01/13 02:28:22;;;;;;;10.95;5.22;;;;;;;18.89;33.85;104094.88;7311461;19;133040;-60
2022/01/13 02:30:51;;;;;;;9.95;5.10;;;;;;;18.89;33.87;104099.56;7312306;19;132500;-62
2022/01/13 02:33:17;;;;;;;8.05;4.88;;;;;;;18.87;33.92;104093.31;7309880;19;129145;-60
2022/01/13 02:35:44;;;;;;;9.82;5.35;;;;;;;18.87;33.81;104088.66;7310750;19;131051;-60
2022/01/13 02:38:12;;;;;;;9.55;4.88;;;;;;;18.87;33.58;104082.22;7312725;19;132078;-61
2022/01/13 02:40:40;;;;;;;7.47;4.95;;;;;;;18.85;33.70;104084.31;7308240;19;128944;-61
2022/01/13 02:43:07;;;;;;;6.57;4.78;;;;;;;18.84;33.55;104082.56;7314671;19;129695;-60
2022/01/13 02:45:38;;;;;;;6.00;4.82;;;;;;;18.83;33.51;104078.09;7308469;19;131171;-61
2022/01/13 02:50:52;;;;;;;7.25;4.90;;;;;;;18.81;33.81;104067.13;7310875;19;128950;-60
2022/01/13 02:53:18;;;;;;;7.20;4.68;;;;;;;18.81;33.77;104060.72;7310828;19;129028;-60
2022/01/13 02:55:45;;;;;;;7.38;4.38;;;;;;;18.79;33.59;104058.13;7311566;19;131928;-60
2022/01/13 02:58:16;;;;;;;9.32;4.82;;;;;;;18.80;33.61;104059.00;7309112;19;131058;-60
2022/01/13 03:00:43;;;;;;;7.20;4.97;;;;;;;18.80;33.60;104064.53;7312566;19;130111;-60
2022/01/13 03:03:12;;;;;;;7.45;4.95;;;;;;;18.79;33.91;104068.34;7308098;19;129018;-60
2022/01/13 03:05:40;;;;;;;9.30;4.93;;;;;;;18.77;33.72;104066.63;7314385;19;135976;-61
2022/01/13 03:08:07;;;;;;;8.68;5.07;;;;;;;18.76;33.84;104062.09;7308298;19;131430;-60
2022/01/13 03:10:35;;;;;;;8.85;5.30;;;;;;;18.76;33.85;104058.47;7310826;19;128847;-62
2022/01/13 03:13:02;;;;;;;6.90;4.72;;;;;;;18.76;33.50;104064.03;7308053;19;129086;-62
2022/01/13 03:15:29;;;;;;;7.03;4.72;;;;;;;18.74;33.99;104061.41;7309156;19;131552;-63
2022/01/13 03:17:56;;;;;;;8.95;5.05;;;;;;;18.74;33.67;104071.66;7311178;19;130942;-63
2022/01/13 03:20:23;;;;;;;10.07;4.90;;;;;;;18.72;33.60;104080.13;7308221;19;131159;-62
2022/01/13 03:22:50;;;;;;;7.88;5.68;;;;;;;18.73;33.56;104072.69;7311830;19;130705;-62
2022/01/13 03:25:21;;;;;;;7.63;4.93;;;;;;;18.72;33.72;104068.16;7309603;19;131091;-62
2022/01/13 03:27:58;;;;;;;9.43;5.00;;;;;;;18.72;33.81;104065.41;7319706;19;131879;-63
2022/01/13 03:30:24;;;;;;;7.82;5.07;;;;;;;18.71;33.62;104071.97;7316060;19;128964;-62
2022/01/13 03:32:51;;;;;;;8.18;5.13;;;;;;;18.70;33.50;104068.34;7316729;19;130816;-62
2022/01/13 03:35:18;;;;;;;7.03;4.93;;;;;;;18.69;33.97;104074.94;7315268;19;132350;-62
2022/01/13 03:37:45;;;;;;;7.75;5.03;;;;;;;18.68;33.58;104078.75;7316869;19;131193;-62
2022/01/13 03:40:12;;;;;;;9.43;4.88;;;;;;;18.67;33.80;104068.69;7316345;19;128909;-63
2022/01/13 03:42:39;;;;;;;7.63;4.80;;;;;;;18.67;33.68;104065.03;7315165;19;130892;-62
2022/01/13 03:45:07;;;;;;;5.95;4.75;;;;;;;18.67;33.83;104065.91;7318522;19;132488;-62
2022/01/13 03:47:34;;;;;;;10.52;5.13;;;;;;;18.66;33.91;104057.75;7313685;19;131601;-63
2022/01/13 03:50:01;;;;;;;8.10;5.20;;;;;;;18.65;33.98;104051.34;7317784;19;128911;-63
2022/01/13 03:52:31;;;;;;;7.90;4.93;;;;;;;18.65;33.87;104056.88;7314563;19;129120;-62
2022/01/13 03:55:29;;;;;;;8.02;4.90;;;;;;;18.65;33.82;104044.91;7317629;19;131127;-63
2022/01/13 03:58:41;;;;;;;9.02;5.45;;;;;;;18.63;33.84;104050.63;7318016;19;131014;-63
2022/01/13 04:01:51;;;;;;;7.95;5.40;;;;;;;18.63;33.52;104053.41;7315050;19;129097;-62
2022/01/13 04:04:18;;;;;;;7.20;5.28;;;;;;;18.61;33.88;104049.94;7316135;19;129039;-62
2022/01/13 04:06:48;;;;;;;8.60;4.75;;;;;;;18.60;33.99;104054.63;7318965;19;131801;-62
2022/01/13 04:09:33;;;;;;;6.20;4.93;;;;;;;18.61;33.53;104055.47;7313075;19;131152;-62
2022/01/13 04:12:04;;;;;;;6.53;5.07;;;;;;;18.58;33.84;104055.84;7316155;19;128694;-64
2022/01/13 04:14:55;;;;;;;6.22;5.00;;;;;;;18.58;33.97;104045.59;7314650;19;129294;-62
2022/01/13 04:17:23;;;;;;;6.47;5.00;;;;;;;18.57;33.90;104049.41;7316674;19;132143;-62
2022/01/13 04:19:50;;;;;;;8.68;5.13;;;;;;;18.57;33.51;104043.00;7316069;19;131772;-64
2022/01/13 04:22:18;;;;;;;7.28;5.57;;;;;;;18.56;33.89;104044.06;7314917;19;130651;-63
2022/01/13 04:24:48;;;;;;;7.05;4.68;;;;;;;18.56;33.80;104057.91;7317366;19;131082;-62
2022/01/13 04:27:22;;;;;;;6.75;4.97;;;;;;;18.56;33.74;104057.91;7314537;19;131925;-64
2022/01/13 04:30:00;;;;;;;8.65;5.30;;;;;;;18.55;33.63;104061.72;7317540;19;131146;-62
2022/01/13 04:32:27;;;;;;;6.95;4.90;;;;;;;18.55;33.92;104064.50;7314753;19;131945;-62
2022/01/13 04:34:54;;;;;;;7.57;5.25;;;;;;;18.54;33.78;104062.75;7317118;19;129340;-63
2022/01/13 04:37:20;;;;;;;8.23;5.75;;;;;;;18.53;33.79;104066.56;7312557;19;131145;-62
2022/01/13 04:39:47;;;;;;;6.95;5.25;;;;;;;18.53;33.60;104066.56;7315938;19;132078;-62
2022/01/13 04:42:14;;;;;;;7.45;5.53;;;;;;;18.52;33.62;104070.38;7316151;19;129056;-63
2022/01/13 04:44:41;;;;;;;7.25;5.30;;;;;;;18.51;33.59;104076.94;7314233;19;135046;-62
2022/01/13 04:47:08;;;;;;;6.35;5.40;;;;;;;18.51;33.61;104071.41;7318173;19;131137;-62
2022/01/13 04:49:35;;;;;;;7.88;5.38;;;;;;;18.50;33.61;104075.22;7312957;19;132945;-62
2022/01/13 04:52:02;;;;;;;6.47;4.93;;;;;;;18.52;33.75;104067.59;7317548;19;129949;-62
2022/01/13 04:54:29;;;;;;;8.70;5.80;;;;;;;18.53;33.87;104066.56;7313411;19;131541;-62
2022/01/13 04:57:08;;;;;;;7.13;5.35;;;;;;;18.59;34.00;104060.31;7315929;19;131307;-63
2022/01/13 04:59:35;;;;;;;6.47;5.22;;;;;;;18.70;33.42;104061.91;7309899;19;131168;-62
2022/01/13 05:02:01;;;;;;;7.80;5.43;;;;;;;18.82;33.69;104059.69;7314039;19;131186;-63
2022/01/13 05:04:28;;;;;;;7.03;4.72;;;;;;;18.98;33.40;104061.63;7317077;19;128887;-62
2022/01/13 05:06:55;;;;;;;6.40;5.10;;;;;;;19.13;33.06;104048.81;7312684;19;131331;-63
2022/01/13 05:09:22;;;;;;;7.30;5.25;;;;;;;19.29;33.19;104045.19;7313806;19;131927;-62
2022/01/13 05:11:48;;;;;;;6.85;5.30;;;;;;;19.44;33.04;104044.47;7311354;19;129629;-63
2022/01/13 05:14:15;;;;;;;8.25;5.30;;;;;;;19.57;32.41;104050.31;7314513;19;129337;-63
2022/01/13 05:19:26;;;;;;;7.72;5.05;;;;;;;19.96;31.95;104046.75;7312508;19;131234;-62
2022/01/13 05:22:15;;;;;;;9.23;5.75;;;;;;;20.18;31.71;104051.72;7309789;19;134629;-62
2022/01/13 05:24:45;;;;;;;8.80;5.38;;;;;;;20.40;31.85;104042.56;7310079;19;129319;-63
2022/01/13 05:27:13;;;;;;;7.25;5.18;;;;;;;20.61;31.63;104035.50;7313604;19;132645;-63
2022/01/13 05:29:40;;;;;;;6.72;5.57;;;;;;;20.80;31.25;104034.16;7307515;19;131565;-64
2022/01/13 05:32:07;;;;;;;8.25;5.68;;;;;;;20.99;30.81;104038.34;7313902;19;128739;-63
2022/01/13 05:34:33;;;;;;;7.60;5.30;;;;;;;21.13;30.54;104047.81;7310797;19;129542;-62
2022/01/13 05:37:10;;;;;;;7.37;5.20;;;;;;;21.26;30.89;104037.97;7310496;19;131962;-63
2022/01/13 05:39:37;;;;;;;8.25;5.35;;;;;;;21.33;30.25;104048.16;7312109;19;131919;-62
2022/01/13 05:42:04;;;;;;;10.65;5.28;;;;;;;21.35;30.65;104043.25;7311208;19;128917;-63
2022/01/13 05:44:37;;;;;;;5.95;5.03;;;;;;;21.35;30.33;104043.25;7312118;19;128820;-63
2022/01/13 05:47:05;;;;;;;6.20;4.70;;;;;;;21.34;30.64;104049.03;7309438;19;132075;-63
2022/01/13 05:49:32;;;;;;;6.70;4.68;;;;;;;21.29;30.37;104045.94;7313390;19;131435;-64
2022/01/13 05:51:59;;;;;;;7.03;4.93;;;;;;;21.23;30.38;104050.34;7310352;19;129006;-63
2022/01/13 05:54:26;;;;;;;15.23;10.65;;;;;;;21.13;29.50;104050.63;7315325;19;128865;-63
2022/01/13 05:56:52;;;;;;;15.63;10.00;;;;;;;20.98;29.70;104052.47;7301212;19;133839;-63
2022/01/13 05:59:21;;;;;;;10.23;9.00;;;;;;;20.87;29.60;104046.28;7306803;19;131702;-63
2022/01/13 06:01:47;;;;;;;13.02;9.00;;;;;;;20.80;29.46;104055.56;7305036;19;131706;-62
2022/01/13 06:04:15;;;;;;;12.35;9.00;;;;;;;20.71;29.34;104060.28;7311045;19;129081;-62
2022/01/13 06:06:42;;;;;;;11.23;8.20;;;;;;;20.64;29.79;104057.38;7312997;19;131287;-62
2022/01/13 06:09:08;;;;;;;11.55;8.15;;;;;;;20.57;29.69;104050.81;7309969;19;132024;-62
2022/01/13 06:11:51;;;;;;;10.93;8.23;;;;;;;20.49;30.04;104060.06;7312431;19;129589;-62
2022/01/13 06:14:18;;;;;;;12.27;8.55;;;;;;;20.42;30.18;104059.09;7311614;19;129058;-62
2022/01/13 06:16:45;;;;;;;9.73;7.28;;;;;;;20.35;30.33;104066.41;7310978;19;131238;-63
2022/01/13 06:19:12;;;;;;;12.70;7.50;;;;;;;20.30;30.04;104066.97;7314531;19;131083;-63
2022/01/13 06:21:38;;;;;;;11.48;7.93;;;;;;;20.26;30.47;104062.78;7308483;19;129643;-63
2022/01/13 06:24:05;;;;;;;12.38;7.38;;;;;;;20.24;30.55;104062.13;7313805;19;128862;-62
2022/01/13 06:26:32;;;;;;;9.23;6.90;;;;;;;20.25;30.55;104070.28;7309238;19;131074;-62
2022/01/13 06:28:58;;;;;;;9.48;6.38;;;;;;;20.27;30.43;104061.75;7312552;19;131116;-62
2022/01/13 06:31:25;;;;;;;10.90;6.28;;;;;;;20.34;30.72;104061.91;7309225;19;129064;-63
2022/01/13 06:33:52;;;;;;;8.13;6.15;;;;;;;20.44;30.13;104056.97;7312353;19;134119;-63
2022/01/13 06:36:19;;;;;;;12.88;6.15;;;;;;;20.57;30.53;104054.47;7310601;19;131099;-62
2022/01/13 06:38:48;;;;;;;8.40;6.50;;;;;;;20.74;30.19;104057.13;7310983;19;131060;-64
2022/01/13 06:41:15;;;;;;;8.43;6.00;;;;;;;20.88;30.12;104042.47;7314897;19;130162;-62
2022/01/13 06:43:42;;;;;;;10.68;5.85;;;;;;;21.05;30.20;104047.88;7308426;19;129138;-64
2022/01/13 06:46:11;;;;;;;11.98;5.78;;;;;;;21.21;29.64;104042.19;7313947;19;131078;-63
2022/01/13 06:48:38;;;;;;;10.77;5.85;;;;;;;21.35;29.64;104028.47;7310120;19;131913;-62
2022/01/13 06:51:05;;;;;;;7.22;5.55;;;;;;;21.47;29.54;104034.47;7314140;19;130213;-63
2022/01/13 06:53:32;;;;;;;9.05;5.50;;;;;;;21.61;29.40;104029.97;7309132;19;129136;-62
2022/01/13 06:56:00;;;;;;;12.15;5.95;;;;;;;21.74;29.19;104029.28;7311000;19;131034;-63
2022/01/13 06:58:27;;;;;;;9.70;5.53;;;;;;;21.86;29.14;104033.31;7313393;19;131084;-62
2022/01/13 07:00:54;;;;;;;11.45;6.30;;;;;;;21.99;28.99;104032.66;7308892;19;129356;-64
2022/01/13 07:03:22;;;;;;;9.90;5.72;;;;;;;22.08;29.24;104036.22;7314113;19;128912;-62
2022/01/13 07:05:48;;;;;;;10.25;5.30;;;;;;;22.12;28.89;104038.41;7310186;19;131217;-63
2022/01/13 07:08:15;;;;;;;9.57;5.22;;;;;;;22.14;28.84;104032.63;7313011;19;131305;-63
2022/01/13 07:10:42;;;;;;;9.88;5.53;;;;;;;22.16;28.68;104033.31;7309590;19;130673;-63
2022/01/13 07:13:08;;;;;;;9.32;4.97;;;;;;;22.15;28.78;104031.56;7310998;19;129614;-63
2022/01/13 07:15:35;;;;;;;11.30;5.40;;;;;;;22.14;29.05;104032.63;7313326;19;132150;-62
2022/01/13 07:18:02;;;;;;;7.60;5.32;;;;;;;22.16;28.77;104038.00;7309164;19;131867;-60
2022/01/13 07:20:29;;;;;;;6.35;4.75;;;;;;;22.20;29.02;104039.34;7313813;19;128842;-60
2022/01/13 07:22:56;;;;;;;7.85;5.10;;;;;;;22.23;28.72;104041.78;7310450;19;129215;-60
2022/01/13 07:25:22;;;;;;;7.13;4.72;;;;;;;22.29;28.93;104049.34;7309893;19;131954;-60
2022/01/13 07:27:49;;;;;;;7.68;4.88;;;;;;;22.35;28.41;104040.22;7312920;19;131617;-60
2022/01/13 07:30:16;;;;;;;9.07;4.90;;;;;;;22.39;28.70;104036.00;7310518;19;129574;-60
2022/01/13 07:32:42;;;;;;;6.60;4.75;;;;;;;22.43;28.49;104044.81;7311569;19;128960;-59
2022/01/13 07:35:10;;;;;;;7.63;5.50;;;;;;;22.41;28.38;104050.56;7309553;19;131125;-60
2022/01/13 07:37:39;;;;;;;9.80;4.97;;;;;;;22.40;28.34;104051.63;7311031;19;131151;-60
2022/01/13 07:40:08;;;;;;;7.57;5.10;;;;;;;22.39;28.63;104051.84;7309333;19;129002;-60
2022/01/13 07:42:41;;;;;;;9.30;5.22;;;;;;;22.35;28.41;104056.06;7312663;19;129471;-61
2022/01/13 07:45:09;;;;;;;9.60;5.18;;;;;;;22.30;28.71;104051.09;7310442;19;131187;-60
2022/01/13 07:47:36;;;;;;;6.95;4.82;;;;;;;22.25;28.31;104056.41;7311047;19;131313;-60
2022/01/13 07:50:05;;;;;;;9.27;5.32;;;;;;;22.16;28.49;104038.00;7309258;19;129142;-60
2022/01/13 07:52:32;;;;;;;7.38;4.70;;;;;;;22.09;28.65;104058.31;7310026;19;129457;-59
2022/01/13 07:54:59;;;;;;;8.55;4.68;;;;;;;22.01;28.70;104061.22;7312537;19;131830;-60
2022/01/13 07:57:26;;;;;;;7.32;4.20;;;;;;;21.91;29.13;104061.50;7308713;19;130991;-60
2022/01/13 07:59:53;;;;;;;9.70;4.55;;;;;;;21.83;28.70;104062.47;7312725;19;129312;-60
2022/01/13 08:02:25;;;;;;;6.03;3.95;;;;;;;21.74;28.83;104057.16;7307593;19;131896;-60
2022/01/13 08:04:52;;;;;;;7.43;4.35;;;;;;;21.67;28.97;104057.06;7310906;19;131694;-60
2022/01/13 08:07:19;;;;;;;5.43;4.35;;;;;;;21.57;29.28;104056.47;7309219;19;131272;-60
2022/01/13 08:09:46;;;;;;;5.53;3.97;;;;;;;21.50;29.61;104064.72;7310260;19;128909;-60
2022/01/13 08:12:13;;;;;;;5.22;4.18;;;;;;;21.43;29.63;104049.81;7314138;19;131240;-59
2022/01/13 08:14:40;;;;;;;7.00;4.40;;;;;;;21.35;29.60;104054.38;7316630;19;131378;-60
2022/01/13 08:17:08;;;;;;;8.07;4.63;;;;;;;21.28;29.89;104059.00;7318615;19;131180;-59
2022/01/13 08:19:48;;;;;;;6.63;4.50;;;;;;;21.22;29.88;104055.03;7314838;19;129158;-60
2022/01/13 08:22:16;;;;;;;9.70;4.40;;;;;;;21.14;29.85;104063.47;7318146;19;129793;-60
2022/01/13 08:24:43;;;;;;;5.28;3.88;;;;;;;21.09;29.84;104060.38;7314931;19;132001;-60
2022/01/13 08:27:10;;;;;;;5.28;3.72;;;;;;;21.03;29.80;104056.44;7316723;19;131279;-60
2022/01/13 08:29:37;;;;;;;6.75;4.43;;;;;;;20.98;30.18;104063.59;7318194;19;128834;-60
2022/01/13 08:32:04;;;;;;;5.47;3.63;;;;;;;20.93;30.10;104052.16;7314352;19;134184;-60
2022/01/13 08:34:31;;;;;;;4.82;3.63;;;;;;;20.89;30.33;104060.91;7318674;19;132407;-59
2022/01/13 08:36:58;;;;;;;5.18;4.07;;;;;;;20.84;30.18;104063.34;7313054;19;132044;-60
2022/01/13 08:39:25;;;;;;;5.00;3.63;;;;;;;20.80;30.23;104064.78;7318956;19;130991;-60
2022/01/13 08:41:51;;;;;;;4.63;3.50;;;;;;;20.76;30.32;104069.00;7314835;19;129609;-60
2022/01/13 08:44:18;;;;;;;5.93;3.95;;;;;;;20.72;30.26;104064.81;7317786;19;131682;-60
2022/01/13 08:46:45;;;;;;;6.20;3.70;;;;;;;20.69;30.19;104065.16;7314728;19;131250;-60
2022/01/13 08:49:12;;;;;;;5.22;3.80;;;;;;;20.64;30.45;104065.72;7316413;19;129095;-60
2022/01/13 08:51:39;;;;;;;6.88;4.10;;;;;;;20.60;30.75;104064.38;7317414;19;129088;-60
2022/01/13 08:54:05;;;;;;;4.75;4.00;;;;;;;20.55;30.35;104070.50;7314063;19;131131;-60
2022/01/13 08:56:32;;;;;;;6.03;3.78;;;;;;;20.52;30.38;104070.84;7317775;19;131142;-60
2022/01/13 08:58:59;;;;;;;6.35;3.88;;;;;;;20.48;30.90;104075.03;7313824;19;128991;-60
2022/01/13 09:01:28;;;;;;;5.20;3.72;;;;;;;20.44;30.94;104068.97;7311448;19;129458;-59
2022/01/13 09:03:55;;;;;;;4.07;3.60;;;;;;;20.41;30.76;104074.91;7313825;19;131223;-60
2022/01/13 09:06:22;;;;;;;5.10;3.90;;;;;;;20.38;30.49;104074.41;7315101;19;132036;-60
2022/01/13 09:08:49;;;;;;;6.43;3.53;;;;;;;20.37;30.81;104083.78;7314175;19;129000;-59
2022/01/13 09:11:15;;;;;;;4.70;3.67;;;;;;;20.33;30.82;104086.06;7315990;19;128797;-60
2022/01/13 09:13:42;;;;;;;4.65;3.50;;;;;;;20.29;30.83;104096.69;7314595;19;131969;-60
2022/01/13 09:16:16;;;;;;;4.45;3.45;;;;;;;20.27;30.67;104101.56;7314643;19;131213;-60
2022/01/13 09:21:25;;;;;;;4.70;3.33;;;;;;;20.35;30.71;104097.00;7313793;19;129271;-60
2022/01/13 09:23:52;;;;;;;4.57;3.75;;;;;;;20.46;30.54;104110.50;7314126;19;131556;-60
2022/01/13 09:26:19;;;;;;;4.47;3.53;;;;;;;20.63;30.79;104111.28;7314189;19;131144;-60
2022/01/13 09:28:46;;;;;;;5.05;3.63;;;;;;;20.81;30.38;104111.03;7314044;19;129026;-60
2022/01/13 09:31:13;;;;;;;4.35;3.47;;;;;;;21.01;30.18;104114.19;7316579;19;129212;-60
2022/01/13 09:33:40;;;;;;;4.07;3.17;;;;;;;21.19;30.30;104105.53;7313725;19;131879;-60
2022/01/13 09:36:07;;;;;;;5.07;3.53;;;;;;;21.38;29.88;104108.88;7315277;19;131192;-60
2022/01/13 09:38:35;;;;;;;4.18;3.40;;;;;;;21.54;29.74;104102.31;7311634;19;130793;-60
2022/01/13 09:41:03;;;;;;;3.50;2.85;;;;;;;21.70;29.17;104101.28;7316642;19;129140;-60
2022/01/13 09:43:29;;;;;;;3.67;3.00;;;;;;;21.85;29.49;104100.41;7313869;19;131226;-60
2022/01/13 09:45:58;;;;;;;4.72;3.38;;;;;;;21.98;29.13;104103.41;7315476;19;132229;-60
2022/01/13 09:48:27;;;;;;;4.45;2.75;;;;;;;22.10;29.08;104107.44;7313509;19;128916;-60
2022/01/13 09:50:54;;;;;;;3.22;2.83;;;;;;;22.21;28.72;104106.13;7314320;19;128840;-60
2022/01/13 09:53:21;;;;;;;4.90;2.88;;;;;;;22.31;28.91;104103.03;7316421;19;131290;-60
2022/01/13 09:55:49;;;;;;;4.35;3.00;;;;;;;22.39;28.56;104105.72;7313541;19;137420;-60
2022/01/13 09:58:16;;;;;;;4.07;2.90;;;;;;;22.48;28.30;104111.19;7316273;19;128895;-60
2022/01/13 10:00:44;;;;;;;3.97;2.90;;;;;;;22.52;28.55;104110.59;7310790;19;128938;-63
2022/01/13 10:03:13;;;;;;;4.72;2.70;;;;;;;22.55;28.29;104115.78;7316780;19;131121;-63
2022/01/13 10:05:52;;;;;;;4.22;2.80;;;;;;;22.54;28.03;104113.19;7312766;19;131983;-63
2022/01/13 10:08:38;;;;;;;3.00;2.70;;;;;;;22.52;28.25;104109.75;7315135;19;131563;-63
2022/01/13 10:11:28;;;;;;;3.15;2.80;;;;;;;22.47;28.10;104112.25;7316745;19;129502;-63
2022/01/13 10:14:04;;;;;;;3.65;2.70;;;;;;;22.40;28.49;104110.22;7312987;19;131073;-63
2022/01/13 10:16:31;;;;;;;3.13;2.42;;;;;;;22.32;28.70;104104.75;7314154;19;131789;-62
2022/01/13 10:18:58;;;;;;;3.22;2.88;;;;;;;22.27;28.71;104112.88;7312552;19;134119;-62
2022/01/13 10:21:25;;;;;;;3.28;2.65;;;;;;;22.20;28.70;104111.84;7313270;19;129634;-62
2022/01/13 10:24:09;;;;;;;5.85;2.97;;;;;;;22.12;28.65;104105.34;7314305;19;132077;-62
2022/01/13 10:26:38;;;;;;;3.90;2.83;;;;;;;22.05;28.56;104104.34;7311091;19;131061;-62
2022/01/13 10:29:07;;;;;;;3.28;2.92;;;;;;;22.00;28.64;104106.88;7315254;19;130764;-63
2022/01/13 10:31:44;;;;;;;5.00;2.70;;;;;;;21.93;29.04;104101.19;7312671;19;129795;-62
2022/01/13 10:34:26;;;;;;;3.78;2.33;;;;;;;21.86;29.15;104110.50;7312365;19;131092;-62
2022/01/13 10:37:04;;;;;;;3.05;2.75;;;;;;;21.79;29.06;104100.13;7315395;19;131147;-63
2022/01/13 10:39:54;;;;;;;3.30;2.78;;;;;;;21.74;29.01;104108.19;7311316;19;128825;-63
2022/01/13 10:45:11;;;;;;;4.45;3.60;;;;;;;21.62;29.06;104109.72;7315233;19;132448;-62
2022/01/13 10:47:40;;;;;;;3.80;2.95;;;;;;;21.55;29.11;104104.03;7309226;19;133266;-63
2022/01/13 10:50:12;;;;;;;4.18;3.10;;;;;;;21.51;29.28;104099.88;7314019;19;128996;-63
2022/01/13 10:52:40;;;;;;;4.07;3.65;;;;;;;21.46;29.15;104099.56;7309836;19;129070;-62
2022/01/13 10:55:08;;;;;;;5.18;3.55;;;;;;;21.41;29.41;104089.00;7312558;19;131092;-63
2022/01/13 10:57:49;;;;;;;3.50;3.15;;;;;;;21.39;29.22;104093.00;7313740;19;130921;-63
2022/01/13 11:00:24;;;;;;;4.90;3.08;;;;;;;21.35;29.21;104093.38;7311180;19;130341;-63
2022/01/13 11:03:14;;;;;;;3.28;2.78;;;;;;;21.31;29.55;104096.72;7314928;19;128926;-62
2022/01/13 11:05:49;;;;;;;3.40;2.90;;;;;;;21.27;29.25;104098.19;7307309;19;131534;-63
2022/01/13 11:08:27;;;;;;;4.05;3.10;;;;;;;21.22;29.83;104088.47;7310314;19;131915;-63
2022/01/13 11:10:58;;;;;;;4.20;3.25;;;;;;;21.19;29.45;104088.81;7310304;19;129221;-63
2022/01/13 11:13:28;;;;;;;3.63;3.10;;;;;;;21.15;29.76;104081.91;7308695;19;129367;-63
2022/01/13 11:15:56;;;;;;;3.65;2.83;;;;;;;21.14;29.97;104091.31;7312432;19;131193;-63
2022/01/13 11:18:28;;;;;;;3.95;2.70;;;;;;;21.15;30.06;104095.84;7307186;19;132756;-63
2022/01/13 11:20:56;;;;;;;4.28;2.90;;;;;;;21.16;29.61;104083.66;7308862;19;128875;-62
2022/01/13 11:23:25;;;;;;;3.55;2.67;;;;;;;21.18;29.75;104087.09;7308558;19;129062;-63
2022/01/13 11:25:54;;;;;;;3.25;2.70;;;;;;;21.21;30.05;104075.59;7311840;19;131197;-64
2022/01/13 11:28:22;;;;;;;5.18;2.83;;;;;;;21.27;29.92;104070.34;7311935;19;131789;-63
2022/01/13 11:30:52;;;;;;;2.85;2.58;;;;;;;21.31;29.63;104060.53;7310759;19;128957;-63
2022/01/13 11:33:21;;;;;;;3.85;2.78;;;;;;;21.37;29.94;104063.44;7313015;19;129819;-63
2022/01/13 11:35:55;;;;;;;2.95;2.58;;;;;;;21.42;29.64;104060.06;7308086;19;131299;-63
2022/01/13 11:38:26;;;;;;;3.63;2.80;;;;;;;21.47;29.58;104046.44;7310911;19;131177;-63
2022/01/13 11:40:58;;;;;;;3.25;2.65;;;;;;;21.52;29.90;104046.78;7309710;19;129044;-63
2022/01/13 11:43:45;;;;;;;3.75;2.63;;;;;;;21.57;29.39;104034.19;7311828;19;129592;-63
2022/01/13 11:46:22;;;;;;;3.40;2.90;;;;;;;21.63;29.35;104041.81;7314810;19;131059;-63